createdAt,value
2022-10-08T00:01:36.604Z,10.85
2022-10-08T00:16:39.258Z,10.54
2022-10-08T00:31:41.611Z,10.22
2022-10-08T00:46:48.711Z,10.05
2022-10-08T01:01:50.185Z,10.30
2022-10-08T01:17:03.818Z,10.25
2022-10-08T01:32:11.416Z,10.28
2022-10-08T01:47:14.747Z,10.53
2022-10-08T02:02:23.609Z,10.48
2022-10-08T02:17:27.789Z,9.83
2022-10-08T02:32:35.663Z,10.04
2022-10-08T02:47:38.997Z,10.67
2022-10-08T03:02:43.887Z,9.57
2022-10-08T03:17:47.330Z,9.32
2022-10-08T03:32:49.259Z,9.88
2022-10-08T03:47:52.435Z,9.36
2022-10-08T04:02:53.906Z,9.26
2022-10-08T04:17:55.396Z,9.37
2022-10-08T04:32:57.616Z,10.43
2022-10-08T04:47:59.084Z,10.91
2022-10-08T05:03:00.624Z,10.70
2022-10-08T05:18:02.223Z,9.64
2022-10-08T05:33:03.794Z,12.27
2022-10-08T05:48:05.252Z,15.86
2022-10-08T06:03:06.799Z,16.73
2022-10-08T06:18:08.277Z,16.12
2022-10-08T06:33:10.231Z,18.07
2022-10-08T06:48:12.376Z,17.08
2022-10-08T07:03:14.035Z,18.45
2022-10-08T07:18:16.167Z,19.53
2022-10-08T07:33:18.229Z,20.24
2022-10-08T07:48:20.692Z,19.80
2022-10-08T08:03:22.157Z,20.61
2022-10-08T08:18:24.004Z,19.24
2022-10-08T08:33:25.463Z,20.44
2022-10-08T08:48:28.942Z,20.71
2022-10-08T09:03:34.865Z,19.85
2022-10-08T09:18:37.196Z,21.97
2022-10-08T09:33:39.436Z,23.49
2022-10-08T09:48:43.316Z,21.24
2022-10-08T10:04:03.601Z,22.20
2022-10-08T10:19:08.773Z,25.13
2022-10-08T10:34:13.988Z,22.65
2022-10-08T10:49:17.447Z,21.37
2022-10-08T11:04:37.729Z,21.50
2022-10-08T11:19:41.987Z,25.41
2022-10-08T11:34:47.888Z,21.88
2022-10-08T11:49:55.580Z,21.89
2022-10-08T12:04:58.602Z,22.34
2022-10-08T12:20:01.777Z,22.99
2022-10-08T12:35:03.489Z,22.52
2022-10-08T12:50:31.422Z,21.47
2022-10-08T13:05:34.396Z,21.96
2022-10-08T13:20:35.918Z,22.86
2022-10-08T13:35:37.445Z,21.50
2022-10-08T13:50:43.337Z,21.77
2022-10-08T14:05:46.022Z,20.97
2022-10-08T14:20:50.020Z,19.92
2022-10-08T14:35:52.322Z,19.25
2022-10-08T14:50:55.985Z,18.23
2022-10-08T15:05:58.232Z,17.03
2022-10-08T15:21:00.578Z,16.56
2022-10-08T15:36:02.156Z,15.97
2022-10-08T15:51:03.912Z,15.80
2022-10-08T16:06:06.218Z,15.45
2022-10-08T16:21:07.682Z,15.43
2022-10-08T16:36:10.163Z,15.00
2022-10-08T16:51:12.223Z,14.89
2022-10-08T17:06:13.691Z,13.90
2022-10-08T17:21:16.101Z,13.63
2022-10-08T17:36:19.105Z,13.26
2022-10-08T17:51:22.101Z,13.40
2022-10-08T18:06:23.873Z,13.18
2022-10-08T18:21:25.409Z,13.01
2022-10-08T18:36:28.248Z,13.24
2022-10-08T18:51:30.189Z,13.47
2022-10-08T19:06:32.768Z,13.96
2022-10-08T19:21:35.835Z,13.66
2022-10-08T19:36:38.202Z,13.70
2022-10-08T19:51:39.906Z,13.53
2022-10-08T20:06:43.074Z,13.63
2022-10-08T20:21:44.605Z,13.53
2022-10-08T20:36:46.938Z,13.38
2022-10-08T20:51:48.482Z,13.13
2022-10-08T21:06:50.413Z,13.15
2022-10-08T21:21:52.309Z,13.14
2022-10-08T21:36:53.850Z,12.97
2022-10-08T21:51:56.098Z,11.98
2022-10-08T22:16:08.723Z,12.69
2022-10-08T22:31:11.219Z,12.33
2022-10-08T22:46:15.090Z,11.61
2022-10-08T23:01:18.033Z,11.58
2022-10-08T23:16:20.126Z,12.35
2022-10-08T23:31:23.556Z,12.09
2022-10-08T23:46:26.089Z,12.05
